Espaço - Ciências - Fenômenos Naturais
Meteógrafos Informações Meteorológicas em tempo real

Aeroporto Presidente Prudente

Histórico do Tempo
Temperatura atual: 13 graus 55 F    Umidade relativa: 76 %
Velocidade do vento: 05 nós 9 Km/h    Direção: 080 graus E
Ajuste do altímetro ..: 1018 HPA
Visibilidade: Ótima    Tempo presente: Céu Limpo

Observação

Data Hora BRTTempo°CUmidadePressãoVentoVisib.
26/05 - 07:56   Céu Limpo 13° 76% 1018 Leste/9 km/h OK
26/05 - 06:56   Céu Limpo 13° 82% 1017 Este-nordeste/10 km/h OK
26/05 - 05:56   Céu Limpo 13° 82% 1017 Este-nordeste/9 km/h OK
26/05 - 04:56   Céu Limpo 13° 82% 1017 Leste/9 km/h OK
26/05 - 03:56   Céu Limpo 13° 82% 1017 Leste/7 km/h OK
26/05 - 02:56   Céu Limpo 13° 82% 1018 Este-sudeste/9 km/h OK
26/05 - 01:56   Céu Limpo 14° 76% 1017 Leste/5 km/h OK
26/05 - 00:56   Céu Limpo 14° 82% 1017 Leste/10 km/h OK
25/05 - 23:56   Céu Limpo 14° 82% 1018 Este-nordeste/9 km/h OK
25/05 - 22:56   Céu Limpo 14° 82% 1017 Este-sudeste/14 km/h OK
25/05 - 21:56   Céu Limpo 15° 77% 1017 Este-sudeste/19 km/h OK
25/05 - 20:56   Céu Limpo 16° 72% 1017 Leste/10 km/h CAVO
25/05 - 19:56   Céu Limpo 16° 67% 1017 Norte/0 km/h OK
25/05 - 18:56   Céu Limpo 20° 52% 1016 Norte/0 km/h OK
25/05 - 17:56   Céu Limpo 22° 43% 1016 Norte/0 km/h OK
25/05 - 16:56   Céu Limpo 22° 43% 1016 Sudoeste/3 km/h OK
25/05 - 15:56   Não Disponível 22° 43% 1016 Norte/0 km/h OK
25/05 - 14:56   Poucas nuvens esparsas 22° 43% 1017 Norte/0 km/h OK
25/05 - 13:56   Poucas nuvens esparsas 20° 49% 1018 Norte-noroeste/3 km/h OK
25/05 - 12:56   Poucas nuvens esparsas 20° 49% 1018 Sudeste/7 km/h OK
25/05 - 11:56   Poucas nuvens esparsas 19° 56% 1019 Sudoeste/10 km/h OK
25/05 - 10:56   Parcialmente Nublado 17° 63% 1019 Sul-sudoeste/14 km/h OK
25/05 - 09:56   Poucas nuvens esparsas 15° 87% 1019 Sul/5 km/h OK
25/05 - 08:56   Parcialmente Nublado 13° 93% 1018 Norte/0 km/h OK


Apolo11.com - Todos os direitos reservados - 2000 - 2019
Política de Privacidade   |     Termo de Uso e Licenciamento   |  -   Entre em Contato

"Deixe que me odeiem, de maneira que me temam!" - Calígula